Time;durP1;ratioP1;P1;durP2;ratioP2;P2;SDS_P1;SDS_P2;PMS_P1;PMS_P2;Temp;Humidity;BMP_temperature;BMP_pressure;BME280_temperature;BME280_humidity;BME280_pressure;Samples;Min_cycle;Max_cycle;Signal;HPM_P1;HPM_P2
2020/12/16 00:02:08;;;;;;;6.97;2.40;;;;;;;8.54;100.00;100942.15;1849988;76;934399;-82
2020/12/16 00:04:38;;;;;;;8.90;2.23;;;;;;;8.41;100.00;100939.86;1821317;78;934395;-81
2020/12/16 00:07:08;;;;;;;10.60;2.10;;;;;;;8.21;100.00;100947.45;1808747;77;933370;-81
2020/12/16 00:09:38;;;;;;;7.73;1.80;;;;;;;8.59;100.00;100956.02;1778466;79;936604;-82
2020/12/16 00:12:08;;;;;;;8.10;2.10;;;;;;;8.78;100.00;100967.44;1849910;76;934344;-81
2020/12/16 00:14:38;;;;;;;9.95;2.50;;;;;;;8.84;100.00;100972.45;1821254;78;934492;-81
2020/12/16 00:17:08;;;;;;;8.67;2.70;;;;;;;8.79;100.00;100966.34;1849864;76;933167;-81
2020/12/16 00:19:38;;;;;;;8.27;2.33;;;;;;;8.86;100.00;100966.91;1821321;77;933442;-81
2020/12/16 00:22:08;;;;;;;8.05;1.82;;;;;;;8.74;100.00;100969.08;1849676;76;934516;-81
2020/12/16 00:24:41;;;;;;;4.57;1.80;;;;;;;8.41;100.00;100970.31;1821159;77;933316;-81
2020/12/16 00:27:12;;;;;;;11.17;2.13;;;;;;;8.40;100.00;100963.09;1828791;76;933502;-82
2020/12/16 00:29:44;;;;;;;11.53;2.20;;;;;;;8.59;100.00;100960.72;1801574;78;933545;-81
2020/12/16 00:32:14;;;;;;;8.88;2.35;;;;;;;8.84;100.00;100952.52;1849827;76;935492;-81
2020/12/16 00:34:45;;;;;;;12.00;2.43;;;;;;;8.96;100.00;100956.43;1821319;78;931535;-81
2020/12/16 00:37:17;;;;;;;9.17;2.20;;;;;;;9.12;100.00;100956.75;1808650;78;935556;-81
2020/12/16 00:39:48;;;;;;;10.80;2.00;;;;;;;9.09;100.00;100958.14;1861934;76;931614;-81
2020/12/16 00:42:19;;;;;;;9.37;2.10;;;;;;;9.17;100.00;100958.70;1809082;77;936116;-81
2020/12/16 00:44:49;;;;;;;8.60;2.17;;;;;;;9.24;100.00;100952.37;1820142;77;931800;-82
2020/12/16 00:47:20;;;;;;;9.50;1.90;;;;;;;9.31;100.00;100945.99;1845165;76;933453;-82
2020/12/16 00:49:50;;;;;;;5.77;1.70;;;;;;;9.29;100.00;100945.42;1821411;77;931525;-82
2020/12/16 00:52:20;;;;;;;8.00;1.73;;;;;;;9.28;100.00;100941.84;1850092;76;933518;-83
2020/12/16 00:54:50;;;;;;;9.00;1.93;;;;;;;9.42;100.00;100933.25;1821008;78;931648;-81
2020/12/16 00:57:22;;;;;;;8.93;2.27;;;;;;;9.47;100.00;100939.36;1808886;78;933610;-81
2020/12/16 00:59:52;;;;;;;10.60;2.00;;;;;;;9.43;100.00;100939.63;1862280;76;931566;-82
2020/12/16 01:02:21;;;;;;;8.87;2.53;;;;;;;9.48;100.00;100946.58;1808525;78;935679;-82
2020/12/16 01:04:51;;;;;;;10.17;1.93;;;;;;;9.46;100.00;100932.98;1820500;77;931529;-82
2020/12/16 01:07:21;;;;;;;9.67;2.70;;;;;;;9.59;100.00;100925.50;1849437;76;935535;-82
2020/12/16 01:09:51;;;;;;;10.80;1.90;;;;;;;9.57;100.00;100931.89;1821229;77;931697;-82
2020/12/16 01:12:21;;;;;;;6.13;1.50;;;;;;;9.58;100.00;100926.59;1849220;76;935501;-81
2020/12/16 01:14:51;;;;;;;9.63;2.10;;;;;;;9.63;100.00;100920.81;1820940;78;931729;-82
2020/12/16 01:17:21;;;;;;;8.00;1.60;;;;;;;9.66;100.00;100905.83;1849573;76;933448;-79
2020/12/16 01:19:51;;;;;;;8.17;1.97;;;;;;;9.66;100.00;100905.83;1821328;77;931583;-79
2020/12/16 01:22:21;;;;;;;9.07;2.03;;;;;;;9.60;100.00;100903.59;1808636;76;933581;-80
2020/12/16 01:24:51;;;;;;;11.13;2.47;;;;;;;9.55;100.00;100906.92;1821140;77;931607;-80
2020/12/16 01:27:20;;;;;;;8.70;1.80;;;;;;;9.56;100.00;100907.20;1779616;78;936626;-79
2020/12/16 01:29:50;;;;;;;10.20;1.70;;;;;;;9.51;100.00;100911.35;1862155;76;932597;-79
2020/12/16 01:32:20;;;;;;;8.60;1.70;;;;;;;9.47;100.00;100908.31;1809191;77;936668;-79
2020/12/16 01:34:50;;;;;;;7.53;1.60;;;;;;;9.62;100.00;100899.17;1821126;78;932776;-79
2020/12/16 01:37:20;;;;;;;7.17;1.77;;;;;;;9.60;100.00;100888.90;1850204;76;934526;-80
2020/12/16 01:39:50;;;;;;;7.13;2.00;;;;;;;9.64;100.00;100891.94;1821277;77;932567;-80
2020/12/16 01:42:20;;;;;;;8.57;2.03;;;;;;;9.55;100.00;100893.89;1849970;76;934066;-79
2020/12/16 01:44:49;;;;;;;7.83;2.40;;;;;;;9.38;100.00;100901.64;1821301;78;932666;-79
2020/12/16 01:47:20;;;;;;;7.73;2.10;;;;;;;9.57;100.00;100899.17;1807176;78;933401;-79
2020/12/16 01:49:50;;;;;;;6.77;1.73;;;;;;;9.66;100.00;100896.12;1820378;77;932614;-79
2020/12/16 01:52:24;;;;;;;7.40;2.07;;;;;;;9.68;100.00;100899.98;1809015;78;933454;-79
2020/12/16 01:54:55;;;;;;;8.70;1.47;;;;;;;9.68;100.00;100898.59;1861706;76;932579;-78
2020/12/16 01:57:26;;;;;;;8.10;1.70;;;;;;;9.70;100.00;100894.45;1821360;78;934655;-78
2020/12/16 01:59:57;;;;;;;10.27;1.93;;;;;;;9.72;100.00;100896.38;1861588;76;933058;-78
2020/12/16 02:02:30;;;;;;;10.27;2.20;;;;;;;9.78;100.00;100897.21;1821077;78;936572;-78
2020/12/16 02:05:02;;;;;;;10.33;2.43;;;;;;;9.71;100.00;100890.58;1808807;77;936613;-79
2020/12/16 02:07:33;;;;;;;7.23;1.67;;;;;;;9.72;100.00;100892.77;1862107;76;936553;-79
2020/12/16 02:10:03;;;;;;;7.93;2.10;;;;;;;9.79;100.00;100892.78;1809413;78;934581;-79
2020/12/16 02:12:35;;;;;;;11.05;1.87;;;;;;;9.82;100.00;100883.06;1862168;76;934784;-79
2020/12/16 02:15:07;;;;;;;9.77;2.17;;;;;;;9.77;100.00;100883.89;1809481;78;936649;-79
2020/12/16 02:17:37;;;;;;;12.97;2.67;;;;;;;9.82;100.00;100887.22;1860318;76;934489;-79
2020/12/16 02:20:09;;;;;;;9.23;1.97;;;;;;;9.86;100.00;100874.45;1808821;78;936652;-79
2020/12/16 02:22:39;;;;;;;8.70;2.30;;;;;;;9.77;100.00;100879.73;1862240;76;934567;-80
2020/12/16 02:25:10;;;;;;;8.65;2.45;;;;;;;9.82;100.00;100870.58;1809695;77;938410;-80
2020/12/16 02:27:42;;;;;;;8.60;2.07;;;;;;;9.82;100.00;100876.95;1861875;76;933636;-80
2020/12/16 02:30:13;;;;;;;9.47;2.53;;;;;;;9.81;100.00;100868.35;1809183;77;933208;-81
2020/12/16 02:32:43;;;;;;;11.03;2.73;;;;;;;9.87;100.00;100860.86;1862053;76;934519;-80
2020/12/16 02:35:13;;;;;;;7.42;1.82;;;;;;;9.90;100.00;100865.29;1809325;78;936643;-79
2020/12/16 02:37:43;;;;;;;7.77;2.13;;;;;;;9.89;100.00;100854.46;1821123;77;934519;-79
2020/12/16 02:40:13;;;;;;;7.95;2.10;;;;;;;9.86;100.00;100850.31;1809071;78;934617;-79
2020/12/16 02:42:43;;;;;;;7.93;1.70;;;;;;;9.85;100.00;100855.58;1791543;78;934564;-79
2020/12/16 02:45:13;;;;;;;7.40;2.15;;;;;;;9.91;100.00;100853.09;1850395;76;934503;-80
2020/12/16 02:47:43;;;;;;;11.43;2.30;;;;;;;9.92;100.00;100855.31;1820872;78;934573;-79
2020/12/16 02:50:13;;;;;;;12.53;2.45;;;;;;;9.89;100.00;100851.13;1849496;76;946304;-80
2020/12/16 02:52:42;;;;;;;8.30;2.20;;;;;;;10.01;100.00;100857.78;1821212;77;936576;-79
2020/12/16 02:55:12;;;;;;;9.13;1.85;;;;;;;10.04;100.00;100853.89;1850063;76;936572;-80
2020/12/16 02:57:42;;;;;;;11.40;2.23;;;;;;;10.04;100.00;100862.21;1821281;78;936748;-80
2020/12/16 03:00:12;;;;;;;10.98;2.65;;;;;;;10.08;100.00;100864.42;1808461;77;938666;-81
2020/12/16 03:02:42;;;;;;;9.93;2.13;;;;;;;10.05;100.00;100853.34;1861855;76;938805;-80
2020/12/16 03:05:12;;;;;;;9.93;2.10;;;;;;;10.04;100.00;100861.38;1809538;78;935419;-81
2020/12/16 03:07:44;;;;;;;7.77;1.83;;;;;;;10.06;100.00;100863.30;1821124;78;935469;-81
2020/12/16 03:10:14;;;;;;;10.73;1.93;;;;;;;10.06;100.00;100863.30;1809111;77;936618;-81
2020/12/16 03:12:44;;;;;;;7.83;1.83;;;;;;;10.13;100.00;100866.63;1862236;76;936712;-80
2020/12/16 03:15:14;;;;;;;10.30;1.90;;;;;;;10.08;100.00;100860.25;1809464;78;936882;-80
2020/12/16 03:17:43;;;;;;;10.43;2.57;;;;;;;10.10;100.00;100861.63;1862112;76;938830;-80
2020/12/16 03:20:13;;;;;;;6.90;2.10;;;;;;;10.14;100.00;100860.53;1809464;78;938795;-80
2020/12/16 03:22:43;;;;;;;10.03;1.97;;;;;;;10.06;100.00;100855.81;1821011;76;936616;-80
2020/12/16 03:25:13;;;;;;;8.35;1.65;;;;;;;10.08;100.00;100856.09;1849980;76;938763;-81
2020/12/16 03:27:43;;;;;;;9.00;2.53;;;;;;;10.05;100.00;100859.69;1821219;78;936629;-80
2020/12/16 03:30:13;;;;;;;14.60;2.30;;;;;;;10.06;100.00;100858.59;1850199;76;936585;-80
2020/12/16 03:32:43;;;;;;;9.97;1.97;;;;;;;9.93;100.00;100846.69;1821131;78;938686;-81
2020/12/16 03:35:13;;;;;;;6.35;1.62;;;;;;;10.05;100.00;100856.11;1849773;76;934963;-79
2020/12/16 03:37:43;;;;;;;9.77;2.50;;;;;;;10.03;100.00;100846.67;1821264;77;935470;-79
2020/12/16 03:40:12;;;;;;;8.43;2.05;;;;;;;10.02;100.00;100845.55;1850038;76;936537;-80
2020/12/16 03:42:42;;;;;;;13.33;1.93;;;;;;;10.09;100.00;100830.84;1821236;77;936802;-80
2020/12/16 03:45:12;;;;;;;8.08;2.00;;;;;;;10.13;100.00;100832.48;1808734;77;938771;-80
2020/12/16 03:47:42;;;;;;;12.97;2.30;;;;;;;10.12;100.00;100838.59;1862282;76;936590;-80
2020/12/16 03:50:12;;;;;;;9.70;3.03;;;;;;;10.09;100.00;100835.00;1808796;77;938768;-80
2020/12/16 03:52:42;;;;;;;10.20;2.20;;;;;;;10.05;100.00;100825.00;1862187;76;936640;-80
2020/12/16 03:55:12;;;;;;;5.80;1.93;;;;;;;10.05;100.00;100818.64;1808136;78;938720;-80
2020/12/16 03:57:41;;;;;;;6.40;1.80;;;;;;;10.06;100.00;100814.19;1859529;76;935537;-80
2020/12/16 04:00:11;;;;;;;10.10;2.30;;;;;;;9.93;100.00;100812.55;1809299;77;935340;-81
2020/12/16 04:02:42;;;;;;;8.93;2.23;;;;;;;9.92;100.00;100812.30;1862208;76;936768;-80
2020/12/16 04:05:11;;;;;;;8.80;1.97;;;;;;;9.91;100.00;100806.47;1809340;78;934999;-80
2020/12/16 04:07:41;;;;;;;7.43;2.07;;;;;;;9.79;100.00;100805.95;1861969;76;934703;-79
2020/12/16 04:10:13;;;;;;;9.50;3.02;;;;;;;9.81;100.00;100805.94;1809586;78;934493;-80
2020/12/16 04:12:43;;;;;;;9.53;2.23;;;;;;;9.77;100.00;100810.38;1820033;78;934964;-79
2020/12/16 04:15:13;;;;;;;6.87;2.20;;;;;;;9.70;100.00;100811.24;1850045;76;934438;-79
2020/12/16 04:17:42;;;;;;;6.23;1.90;;;;;;;9.83;100.00;100800.95;1821192;78;934461;-79
2020/12/16 04:20:12;;;;;;;7.30;2.25;;;;;;;9.90;100.00;100806.19;1809472;77;934618;-79
2020/12/16 04:22:42;;;;;;;9.27;1.63;;;;;;;9.87;100.00;100792.34;1862149;76;934450;-79
2020/12/16 04:25:12;;;;;;;8.00;2.02;;;;;;;9.83;100.00;100783.47;1809283;78;934566;-79
2020/12/16 04:27:42;;;;;;;8.25;2.17;;;;;;;9.78;100.00;100789.86;1820622;78;934414;-80
2020/12/16 04:30:12;;;;;;;9.07;2.40;;;;;;;9.76;100.00;100789.85;1779857;78;934409;-79
2020/12/16 04:32:42;;;;;;;11.30;1.50;;;;;;;9.73;100.00;100791.81;1862078;76;934665;-79
2020/12/16 04:35:12;;;;;;;8.83;1.87;;;;;;;9.72;100.00;100785.98;1809041;78;936534;-79
2020/12/16 04:37:41;;;;;;;9.50;2.27;;;;;;;9.73;100.00;100796.80;1820828;77;934453;-79
2020/12/16 04:40:11;;;;;;;5.40;1.72;;;;;;;9.79;100.00;100801.24;1849632;76;934530;-79
2020/12/16 04:42:42;;;;;;;8.57;2.03;;;;;;;9.82;100.00;100791.52;1820520;77;933461;-79
2020/12/16 04:45:12;;;;;;;10.50;2.00;;;;;;;9.80;100.00;100779.30;1809134;77;934546;-79
2020/12/16 04:47:42;;;;;;;9.93;1.90;;;;;;;9.83;100.00;100787.08;1791521;78;936557;-79
2020/12/16 04:50:12;;;;;;;9.33;2.77;;;;;;;9.81;100.00;100781.52;1849997;76;934595;-79
2020/12/16 04:52:44;;;;;;;6.07;2.37;;;;;;;9.78;100.00;100778.77;1821225;77;934516;-80
2020/12/16 04:55:14;;;;;;;8.28;1.65;;;;;;;9.74;100.00;100774.89;1849976;76;934632;-79
2020/12/16 04:57:49;;;;;;;11.50;1.97;;;;;;;9.80;100.00;100786.79;1821377;77;932615;-79
2020/12/16 05:00:23;;;;;;;8.73;1.90;;;;;;;9.72;100.00;100785.42;1837135;76;936731;-79
2020/12/16 05:02:56;;;;;;;8.10;2.10;;;;;;;9.80;100.00;100783.45;1821264;78;932487;-79
2020/12/16 05:05:27;;;;;;;13.80;2.20;;;;;;;9.75;100.00;100786.83;1821142;78;934489;-79
2020/12/16 05:07:57;;;;;;;6.03;1.70;;;;;;;9.73;100.00;100784.88;1791516;78;934597;-79
2020/12/16 05:10:38;;;;;;;6.83;1.80;;;;;;;9.75;100.00;100793.77;1862255;76;933420;-80
2020/12/16 05:13:10;;;;;;;6.60;2.00;;;;;;;9.80;100.00;100789.56;1808867;77;936143;-79
2020/12/16 05:15:42;;;;;;;6.50;1.73;;;;;;;9.72;100.00;100788.20;1862149;76;934504;-79
2020/12/16 05:18:17;;;;;;;6.67;2.35;;;;;;;9.79;100.00;100766.56;1809395;77;934581;-80
2020/12/16 05:20:50;;;;;;;10.83;2.60;;;;;;;9.80;100.00;100774.30;1820870;78;932578;-80
2020/12/16 05:23:21;;;;;;;8.67;2.03;;;;;;;9.76;100.00;100771.27;1849852;76;936641;-81
2020/12/16 05:26:02;;;;;;;6.60;2.17;;;;;;;9.79;100.00;100767.12;1862154;76;932585;-81
2020/12/16 05:28:33;;;;;;;11.97;2.43;;;;;;;9.79;100.00;100767.12;1820957;78;934618;-79
2020/12/16 05:31:06;;;;;;;12.58;2.20;;;;;;;9.88;100.00;100770.98;1808488;77;936628;-79
2020/12/16 05:33:43;;;;;;;9.47;2.40;;;;;;;9.83;100.00;100775.15;1861606;76;935510;-79
2020/12/16 05:36:13;;;;;;;8.90;1.73;;;;;;;9.83;100.00;100777.38;1809158;78;934541;-80
2020/12/16 05:38:52;;;;;;;9.87;2.30;;;;;;;9.90;100.00;100783.44;1861589;76;934510;-79
2020/12/16 05:41:27;;;;;;;8.23;2.13;;;;;;;9.89;100.00;100779.55;1809007;78;934619;-80
2020/12/16 05:44:16;;;;;;;7.13;2.13;;;;;;;9.92;100.00;100768.75;1821216;77;932766;-80
2020/12/16 05:46:47;;;;;;;8.80;1.73;;;;;;;9.94;100.00;100790.64;1813064;78;932786;-79
2020/12/16 05:49:24;;;;;;;8.90;2.57;;;;;;;9.90;100.00;100790.38;1779824;78;934496;-79
2020/12/16 05:51:58;;;;;;;10.10;1.80;;;;;;;9.89;100.00;100785.94;1862099;76;932619;-80
2020/12/16 05:54:30;;;;;;;8.80;2.60;;;;;;;9.85;100.00;100784.84;1821198;78;936674;-80
2020/12/16 05:57:12;;;;;;;8.17;1.90;;;;;;;9.95;100.00;100784.81;1809257;77;934532;-80
2020/12/16 05:59:43;;;;;;;11.30;2.03;;;;;;;9.97;100.00;100787.29;1862144;76;934404;-79
2020/12/16 06:02:13;;;;;;;9.70;3.13;;;;;;;10.01;100.00;100774.55;1809347;77;936190;-79
2020/12/16 06:04:44;;;;;;;8.33;2.27;;;;;;;9.99;100.00;100766.48;1862132;76;936777;-79
2020/12/16 06:07:17;;;;;;;11.18;2.42;;;;;;;10.06;100.00;100775.87;1809728;77;934455;-79
2020/12/16 06:09:47;;;;;;;9.20;1.90;;;;;;;10.03;100.00;100765.36;1821046;77;937042;-80
2020/12/16 06:12:18;;;;;;;7.00;1.93;;;;;;;10.03;100.00;100763.42;1850238;76;935431;-80
2020/12/16 06:14:51;;;;;;;11.27;2.47;;;;;;;10.08;100.00;100763.13;1821408;78;934760;-80
2020/12/16 06:17:23;;;;;;;6.97;2.40;;;;;;;10.09;100.00;100767.56;1849512;76;938647;-80
2020/12/16 06:19:54;;;;;;;11.47;2.13;;;;;;;10.13;100.00;100770.88;1821351;78;934734;-80
2020/12/16 06:22:26;;;;;;;6.60;1.83;;;;;;;10.20;100.00;100776.97;1821202;76;938616;-81
2020/12/16 06:24:58;;;;;;;8.30;2.10;;;;;;;10.27;100.00;100775.30;1790825;78;934689;-80
2020/12/16 06:27:32;;;;;;;9.03;2.53;;;;;;;10.30;100.00;100776.10;1789792;79;935654;-79
2020/12/16 06:30:03;;;;;;;8.27;2.00;;;;;;;10.34;100.00;100763.31;1809395;77;936597;-80
2020/12/16 06:32:38;;;;;;;11.40;2.30;;;;;;;10.31;100.00;100766.08;1862243;76;936563;-80
2020/12/16 06:35:12;;;;;;;5.62;1.70;;;;;;;10.42;100.00;100769.09;1809474;78;939035;-79
2020/12/16 06:37:42;;;;;;;7.77;2.07;;;;;;;10.44;100.00;100770.17;1860118;76;935775;-79
2020/12/16 06:40:12;;;;;;;6.43;2.00;;;;;;;10.45;100.00;100764.34;1809503;77;935497;-79
2020/12/16 06:42:42;;;;;;;11.80;2.33;;;;;;;10.43;100.00;100765.77;1821162;78;937108;-80
2020/12/16 06:45:16;;;;;;;7.40;1.87;;;;;;;10.39;100.00;100762.73;1809253;77;938685;-81
2020/12/16 06:47:46;;;;;;;7.43;2.17;;;;;;;10.42;100.00;100763.54;1820984;78;934722;-80
2020/12/16 06:50:21;;;;;;;4.07;1.63;;;;;;;10.39;100.00;100776.62;1849691;76;936541;-79
2020/12/16 06:52:51;;;;;;;10.33;2.03;;;;;;;10.45;100.00;100769.90;1821252;77;934586;-81
2020/12/16 06:55:21;;;;;;;6.93;1.77;;;;;;;10.40;100.00;100772.70;1809198;77;938671;-79
2020/12/16 06:57:51;;;;;;;7.33;1.87;;;;;;;10.39;100.00;100775.78;1861445;76;934612;-79
2020/12/16 07:00:24;;;;;;;7.43;1.90;;;;;;;10.36;100.00;100770.22;1809014;77;936529;-81
2020/12/16 07:02:53;;;;;;;8.13;2.00;;;;;;;10.31;100.00;100784.12;1820773;77;934730;-80
2020/12/16 07:05:51;;;;;;;9.03;2.00;;;;;;;10.30;100.00;100786.66;1861841;76;936513;-81
2020/12/16 07:08:30;;;;;;;7.27;2.53;;;;;;;10.32;100.00;100790.52;1847932;76;936639;-80
2020/12/16 07:11:03;;;;;;;8.70;2.03;;;;;;;10.34;100.00;100786.35;1811525;77;935651;-80
2020/12/16 07:13:35;;;;;;;8.17;1.90;;;;;;;10.34;100.00;100771.08;1783897;79;936719;-89
2020/12/16 07:16:09;;;;;;;6.87;1.80;;;;;;;10.33;100.00;100771.36;1780055;79;936717;-81
2020/12/16 07:18:49;;;;;;;7.03;2.07;;;;;;;10.35;100.00;100768.59;1820719;78;936621;-81
2020/12/16 07:21:21;;;;;;;4.30;1.70;;;;;;;10.32;100.00;100773.86;1850219;76;936470;-80
2020/12/16 07:24:21;;;;;;;7.13;2.30;;;;;;;10.24;100.00;100771.67;1821335;77;935033;-82
2020/12/16 07:26:53;;;;;;;5.20;1.97;;;;;;;10.20;100.00;100774.75;1786151;78;934672;-82
2020/12/16 07:29:29;;;;;;;7.13;2.33;;;;;;;10.21;100.00;100776.42;1791130;78;936662;-83
2020/12/16 07:32:07;;;;;;;6.13;1.70;;;;;;;10.22;100.00;100781.70;1850175;76;935627;-83
2020/12/16 07:34:47;;;;;;;5.83;2.03;;;;;;;10.14;100.00;100781.42;1821360;77;936545;-78
2020/12/16 07:37:19;;;;;;;9.35;2.10;;;;;;;10.18;100.00;100788.09;1850128;76;936492;-77
2020/12/16 07:39:51;;;;;;;7.80;2.10;;;;;;;10.19;100.00;100786.41;1821339;78;934920;-79
2020/12/16 07:42:27;;;;;;;6.27;1.97;;;;;;;10.20;100.00;100788.63;1769777;79;936843;-78
2020/12/16 07:44:59;;;;;;;6.03;1.90;;;;;;;10.13;100.00;100793.08;1820348;77;934911;-77
2020/12/16 07:47:29;;;;;;;6.50;1.93;;;;;;;10.12;100.00;100783.64;1789874;79;936691;-77
2020/12/16 07:49:59;;;;;;;7.73;2.53;;;;;;;10.13;100.00;100774.20;1849106;76;935536;-80
2020/12/16 07:52:31;;;;;;;8.63;2.30;;;;;;;10.10;100.00;100780.34;1862294;76;936763;-78
2020/12/16 07:55:00;;;;;;;6.30;1.97;;;;;;;10.13;100.00;100775.59;1809557;78;936842;-78
2020/12/16 07:57:33;;;;;;;8.33;2.27;;;;;;;10.10;100.00;100780.34;1862423;76;936657;-77
2020/12/16 08:00:04;;;;;;;7.17;2.10;;;;;;;10.06;100.00;100782.27;1809276;77;936762;-78
2020/12/16 08:02:34;;;;;;;8.53;2.40;;;;;;;10.01;100.00;100784.25;1819050;78;936654;-78
2020/12/16 08:05:05;;;;;;;10.75;2.70;;;;;;;10.04;100.00;100784.52;1850168;76;936481;-77
2020/12/16 08:07:35;;;;;;;9.03;2.57;;;;;;;10.00;100.00;100779.25;1821235;78;938856;-76
2020/12/16 08:10:07;;;;;;;9.03;2.08;;;;;;;9.95;100.00;100782.05;1850021;76;936896;-77
2020/12/16 08:12:40;;;;;;;9.47;2.13;;;;;;;10.01;100.00;100781.48;1821313;77;934503;-77
2020/12/16 08:15:12;;;;;;;7.33;2.12;;;;;;;10.01;100.00;100787.83;1849716;76;936601;-76
2020/12/16 08:17:45;;;;;;;9.30;2.50;;;;;;;10.09;100.00;100782.83;1821526;77;935424;-80
2020/12/16 08:20:17;;;;;;;6.90;2.30;;;;;;;10.12;100.00;100776.14;1850144;76;936546;-79
2020/12/16 08:22:48;;;;;;;7.53;2.43;;;;;;;10.08;100.00;100775.61;1821316;78;934786;-79
2020/12/16 08:25:21;;;;;;;10.63;2.93;;;;;;;10.08;100.00;100761.73;1849907;76;936671;-78
2020/12/16 08:27:54;;;;;;;6.73;2.20;;;;;;;10.09;100.00;100769.79;1821376;77;937276;-80
2020/12/16 08:30:26;;;;;;;4.53;2.07;;;;;;;10.12;100.00;100773.92;1821057;78;936568;-80
2020/12/16 08:33:00;;;;;;;6.33;2.33;;;;;;;10.03;100.00;100780.63;1862404;76;934680;-80
2020/12/16 08:35:35;;;;;;;6.97;1.93;;;;;;;10.04;100.00;100780.91;1821274;77;935613;-83
2020/12/16 08:38:11;;;;;;;7.92;2.52;;;;;;;10.07;100.00;100777.55;1850061;76;935506;-78
2020/12/16 08:40:44;;;;;;;9.17;2.70;;;;;;;10.06;100.00;100793.37;1821308;78;936700;-80
2020/12/16 08:43:24;;;;;;;11.00;2.50;;;;;;;10.07;100.00;100781.72;1809414;77;936511;-82
2020/12/16 08:46:17;;;;;;;8.53;1.93;;;;;;;10.12;100.00;100790.03;1820963;78;936845;-82
2020/12/16 08:48:50;;;;;;;6.77;2.83;;;;;;;10.15;100.00;100783.93;1788957;79;934632;-81
2020/12/16 08:51:22;;;;;;;8.70;2.30;;;;;;;10.21;100.00;100792.52;1809232;77;936781;-82
2020/12/16 08:53:55;;;;;;;9.20;2.20;;;;;;;10.30;100.00;100781.66;1820855;78;934923;-81
2020/12/16 08:56:36;;;;;;;8.23;1.97;;;;;;;10.28;100.00;100786.09;1862272;76;936682;-81
2020/12/16 08:59:10;;;;;;;5.08;1.95;;;;;;;10.33;100.00;100780.52;1849608;76;935631;-81
2020/12/16 09:01:43;;;;;;;7.37;1.90;;;;;;;10.37;100.00;100784.39;1862145;76;936613;-82
2020/12/16 09:04:22;;;;;;;6.53;2.30;;;;;;;10.44;100.00;100776.56;1809324;77;936599;-81
2020/12/16 09:07:07;;;;;;;8.93;2.63;;;;;;;10.47;100.00;100777.40;1820625;78;934613;-81
2020/12/16 09:09:39;;;;;;;5.67;2.30;;;;;;;10.52;100.00;100772.37;1862139;76;936730;-80
2020/12/16 09:12:14;;;;;;;10.10;2.07;;;;;;;10.51;100.00;100773.48;1850185;76;936076;-81
2020/12/16 09:14:50;;;;;;;8.83;2.17;;;;;;;10.55;100.00;100772.34;1820502;78;936923;-80
2020/12/16 09:17:20;;;;;;;12.23;2.33;;;;;;;10.57;100.00;100765.38;1849854;76;935526;-81
2020/12/16 09:19:50;;;;;;;9.13;2.10;;;;;;;10.58;100.00;100760.66;1821190;77;936798;-81
2020/12/16 09:22:25;;;;;;;9.47;2.13;;;;;;;10.67;100.00;100762.55;1849676;76;935532;-81
2020/12/16 09:24:56;;;;;;;5.97;2.40;;;;;;;10.68;100.00;100761.99;1820907;77;934588;-81
2020/12/16 09:27:26;;;;;;;7.10;2.53;;;;;;;10.72;100.00;100763.91;1862364;76;936564;-80
2020/12/16 09:29:57;;;;;;;5.17;1.83;;;;;;;10.70;100.00;100759.18;1821259;77;934946;-80
2020/12/16 09:32:28;;;;;;;7.47;2.03;;;;;;;10.72;100.00;100772.80;1862126;76;936659;-81
2020/12/16 09:34:59;;;;;;;6.77;2.57;;;;;;;10.79;100.00;100764.95;1821254;77;936498;-81
2020/12/16 09:37:33;;;;;;;7.73;2.10;;;;;;;10.81;100.00;100769.13;1850775;76;936917;-81
2020/12/16 09:40:08;;;;;;;9.10;2.50;;;;;;;10.82;100.00;100761.63;1809097;78;936804;-81
2020/12/16 09:42:39;;;;;;;8.47;2.53;;;;;;;10.80;100.00;100763.29;1821135;77;937110;-81
2020/12/16 09:45:15;;;;;;;7.10;2.08;;;;;;;10.82;100.00;100763.84;1850320;76;936581;-81
2020/12/16 09:47:47;;;;;;;11.40;2.00;;;;;;;10.79;100.00;100765.79;1821313;77;935026;-81
2020/12/16 09:50:19;;;;;;;8.30;2.50;;;;;;;10.85;100.00;100768.81;1850048;76;938630;-81
2020/12/16 09:52:51;;;;;;;9.30;2.50;;;;;;;10.79;100.00;100769.13;1861768;76;934660;-81
2020/12/16 09:55:22;;;;;;;8.57;2.67;;;;;;;10.80;100.00;100766.06;1849551;76;936664;-81
2020/12/16 09:58:03;;;;;;;8.07;2.27;;;;;;;10.82;100.00;100765.79;1821328;77;934614;-82
2020/12/16 10:00:35;;;;;;;6.37;2.00;;;;;;;10.83;100.00;100765.48;1861331;76;936617;-81
2020/12/16 10:03:09;;;;;;;10.60;2.30;;;;;;;10.83;100.00;100757.14;1809396;77;937563;-82
2020/12/16 10:05:41;;;;;;;6.70;2.37;;;;;;;10.87;100.00;100758.22;1862184;76;938802;-84
2020/12/16 10:08:14;;;;;;;6.45;1.90;;;;;;;10.92;100.00;100761.52;1809799;77;936519;-85
2020/12/16 10:10:44;;;;;;;7.10;1.83;;;;;;;10.95;100.00;100752.63;1862002;76;934553;-85
2020/12/16 10:13:15;;;;;;;8.57;1.83;;;;;;;10.95;100.00;100752.05;1809534;78;936582;-84
2020/12/16 10:15:45;;;;;;;6.30;2.10;;;;;;;10.94;100.00;100742.07;1862425;76;934821;-86
2020/12/16 10:18:15;;;;;;;11.07;2.50;;;;;;;10.93;100.00;100745.96;1809272;78;935729;-85
2020/12/16 10:20:44;;;;;;;7.17;1.80;;;;;;;10.96;100.00;100751.48;1862462;76;936648;-85
2020/12/16 10:23:15;;;;;;;7.67;2.30;;;;;;;10.99;100.00;100743.98;1809375;77;936583;-85
2020/12/16 10:25:44;;;;;;;9.03;2.40;;;;;;;11.02;100.00;100742.00;1848114;76;934771;-84
2020/12/16 10:28:15;;;;;;;7.85;2.45;;;;;;;11.11;100.00;100743.04;1831475;76;936651;-84
2020/12/16 10:30:49;;;;;;;7.13;2.03;;;;;;;11.10;100.00;100733.59;1821356;77;934649;-85
2020/12/16 10:33:24;;;;;;;9.67;2.57;;;;;;;11.13;100.00;100744.12;1849536;76;936663;-83
2020/12/16 10:35:59;;;;;;;7.80;1.97;;;;;;;11.17;100.00;100747.41;1820467;78;934809;-84
2020/12/16 10:38:34;;;;;;;6.63;2.03;;;;;;;11.14;100.00;100742.45;1820582;78;936712;-85
2020/12/16 10:41:28;;;;;;;8.53;1.60;;;;;;;11.18;100.00;100735.73;1777179;78;937709;-87
2020/12/16 10:44:11;;;;;;;5.03;1.53;;;;;;;11.20;100.00;100738.52;1796735;77;934621;-86
2020/12/16 10:50:42;;;;;;;8.68;2.30;;;;;;;11.24;100.00;100741.53;1751809;78;933704;-84
2020/12/16 10:53:50;;;;;;;6.53;1.90;;;;;;;11.19;100.00;100752.13;1843019;76;936562;-84
2020/12/16 10:56:30;;;;;;;8.30;2.33;;;;;;;11.21;100.00;100744.91;1816563;76;962819;-90
2020/12/16 10:59:04;;;;;;;7.50;1.90;;;;;;;11.24;100.00;100734.58;1793392;76;936807;-84
2020/12/16 11:01:40;;;;;;;6.70;2.07;;;;;;;11.24;100.00;100738.20;1858883;76;935534;-86
2020/12/16 11:04:12;;;;;;;4.75;1.80;;;;;;;11.23;100.00;100741.25;1846984;76;937487;-88
2020/12/16 11:06:57;;;;;;;6.87;1.90;;;;;;;11.24;100.00;100728.46;1808765;78;935661;-90
2020/12/16 11:09:32;;;;;;;5.43;2.03;;;;;;;11.26;100.00;100720.64;1847212;76;935543;-88
2020/12/16 11:12:04;;;;;;;6.67;1.70;;;;;;;11.25;100.00;100705.07;1805424;77;935599;-87
2020/12/16 11:14:40;;;;;;;7.13;2.87;;;;;;;11.25;100.00;100715.39;1845394;76;935630;-82
2020/12/16 11:17:11;;;;;;;9.68;2.15;;;;;;;11.28;100.00;100707.84;1846639;76;935606;-80
2020/12/16 11:19:44;;;;;;;9.97;2.20;;;;;;;11.27;100.00;100711.74;1821423;78;935595;-78
2020/12/16 11:22:17;;;;;;;9.90;2.43;;;;;;;11.29;100.00;100710.34;1850051;76;937921;-81
2020/12/16 11:24:56;;;;;;;7.03;1.87;;;;;;;11.26;100.00;100714.25;1821446;77;933606;-82
2020/12/16 11:27:30;;;;;;;9.97;2.37;;;;;;;11.22;100.00;100709.84;1862110;76;935716;-84
2020/12/16 11:30:04;;;;;;;4.90;1.77;;;;;;;11.24;100.00;100709.56;1809661;78;935730;-82
2020/12/16 11:32:35;;;;;;;11.05;2.02;;;;;;;11.27;100.00;100696.45;1843783;76;935659;-81
2020/12/16 11:35:10;;;;;;;6.53;1.72;;;;;;;11.25;100.00;100705.66;1809219;77;937911;-83
2020/12/16 11:37:48;;;;;;;6.73;2.20;;;;;;;11.25;100.00;100714.80;1781735;79;935597;-86
2020/12/16 11:40:20;;;;;;;7.17;1.90;;;;;;;11.30;100.00;100706.98;1831891;77;935790;-83